Terminal Aerodrome Forecast
Issued by NWS Newport/Morehead City, NC

Home | Current Version | Previous Version | Text Only | Print | Product List | Glossary On
Versions: 1 2 3 4 5 6 7 8 9 10 11 12
353
FTUS42 KMHX 072334
TAFEWN
TAF
KEWN 072334Z 0800/0824 00000KT P6SM FEW250
     FM080600 00000KT P6SM SCT025
     FM080700 00000KT P6SM BKN015
     FM081400 00000KT P6SM BKN020
     FM081700 27005KT P6SM BKN025
     FM082100 31010KT P6SM BKN050=

USA.gov is the U.S. government's official web portal to all federal, state and local government web resources and services.